createdAt,value
2019-03-05T00:02:32.901Z,3.27
2019-03-05T00:05:07.626Z,3.57
2019-03-05T00:07:41.201Z,3.77
2019-03-05T00:10:18.000Z,3.40
2019-03-05T00:12:51.388Z,3.13
2019-03-05T00:15:27.136Z,3.67
2019-03-05T00:18:00.599Z,3.50
2019-03-05T00:20:34.115Z,3.70
2019-03-05T00:23:08.433Z,3.47
2019-03-05T00:25:42.045Z,3.93
2019-03-05T00:28:21.617Z,3.63
2019-03-05T00:31:13.356Z,3.40
2019-03-05T00:33:58.886Z,4.03
2019-03-05T00:36:35.570Z,4.23
2019-03-05T00:39:23.831Z,3.80
2019-03-05T00:42:09.139Z,3.53
2019-03-05T00:45:14.328Z,3.77
2019-03-05T00:47:59.671Z,3.53
2019-03-05T00:50:36.266Z,3.40
2019-03-05T00:53:30.707Z,3.57
2019-03-05T00:56:10.181Z,3.47
2019-03-05T00:59:07.174Z,3.47
2019-03-05T01:01:59.893Z,3.53
2019-03-05T01:04:39.037Z,4.30
2019-03-05T01:07:12.427Z,3.73
2019-03-05T01:09:45.799Z,3.20
2019-03-05T01:12:19.572Z,3.13
2019-03-05T01:14:53.911Z,4.00
2019-03-05T01:17:27.318Z,3.67
2019-03-05T01:20:00.907Z,3.30
2019-03-05T01:22:34.332Z,3.03
2019-03-05T01:25:22.976Z,3.27
2019-03-05T01:27:56.500Z,2.53
2019-03-05T01:30:40.509Z,2.93
2019-03-05T01:33:18.334Z,2.87
2019-03-05T01:35:53.447Z,3.30
2019-03-05T01:38:26.968Z,3.90
2019-03-05T01:41:02.118Z,3.20
2019-03-05T01:43:35.453Z,3.67
2019-03-05T01:46:08.980Z,3.93
2019-03-05T01:48:42.376Z,4.07
2019-03-05T01:51:15.842Z,4.23
2019-03-05T01:53:49.236Z,4.37
2019-03-05T01:56:22.610Z,4.17
2019-03-05T01:58:56.189Z,4.80
2019-03-05T02:01:29.656Z,4.10
2019-03-05T02:04:03.394Z,3.90
2019-03-05T02:06:36.815Z,4.40
2019-03-05T02:09:10.161Z,3.70
2019-03-05T02:11:43.696Z,4.27
2019-03-05T02:14:17.255Z,4.00
2019-03-05T02:16:50.758Z,3.60
2019-03-05T02:19:38.642Z,3.97
2019-03-05T02:22:26.751Z,4.03
2019-03-05T02:25:06.065Z,3.67
2019-03-05T02:28:14.447Z,3.67
2019-03-05T02:30:59.387Z,4.40
2019-03-05T02:33:53.663Z,16.93
2019-03-05T02:36:36.168Z,5.50
2019-03-05T02:39:36.892Z,5.57
2019-03-05T02:42:15.950Z,4.70
2019-03-05T02:45:07.340Z,5.60
2019-03-05T02:47:49.761Z,5.07
2019-03-05T02:50:45.836Z,5.70
2019-03-05T02:53:56.320Z,5.53
2019-03-05T02:56:32.839Z,5.13
2019-03-05T02:59:05.198Z,4.87
2019-03-05T03:01:42.961Z,4.80
2019-03-05T03:04:18.127Z,4.53
2019-03-05T03:06:51.539Z,4.00
2019-03-05T03:09:31.019Z,3.50
2019-03-05T03:12:04.441Z,3.73
2019-03-05T03:14:38.041Z,3.70
2019-03-05T03:17:11.523Z,3.83
2019-03-05T03:19:45.038Z,3.67
2019-03-05T03:22:18.984Z,4.37
2019-03-05T03:24:52.427Z,3.90
2019-03-05T03:27:25.900Z,4.83
2019-03-05T03:29:59.357Z,4.07
2019-03-05T03:32:32.959Z,5.03
2019-03-05T03:35:08.496Z,5.13
2019-03-05T03:37:42.015Z,4.53
2019-03-05T03:40:19.801Z,4.93
2019-03-05T03:42:53.215Z,5.70
2019-03-05T03:45:26.951Z,5.43
2019-03-05T03:48:00.385Z,5.93
2019-03-05T03:50:33.909Z,5.40
2019-03-05T03:53:07.457Z,6.33
2019-03-05T03:55:41.293Z,5.60
2019-03-05T03:58:14.817Z,6.13
2019-03-05T04:00:48.316Z,5.40
2019-03-05T04:03:21.802Z,5.63
2019-03-05T04:05:55.341Z,5.90
2019-03-05T04:08:28.824Z,5.80
2019-03-05T04:11:02.378Z,6.00
2019-03-05T04:13:35.861Z,5.70
2019-03-05T04:16:09.391Z,5.57
2019-03-05T04:18:42.889Z,6.53
2019-03-05T04:21:19.769Z,6.13
2019-03-05T04:23:51.538Z,5.77
2019-03-05T04:26:24.995Z,5.60
2019-03-05T04:28:58.360Z,5.20
2019-03-05T04:31:33.209Z,5.67
2019-03-05T04:34:06.586Z,5.47
2019-03-05T04:36:40.136Z,4.97
2019-03-05T04:39:13.551Z,5.77
2019-03-05T04:41:47.148Z,4.63
2019-03-05T04:44:22.389Z,5.50
2019-03-05T04:47:02.273Z,5.20
2019-03-05T04:49:37.475Z,4.70
2019-03-05T04:52:15.430Z,3.70
2019-03-05T04:54:48.840Z,4.47
2019-03-05T04:57:22.318Z,4.37
2019-03-05T04:59:55.791Z,3.73
2019-03-05T05:02:29.303Z,4.00
2019-03-05T05:05:02.886Z,3.93
2019-03-05T05:07:36.318Z,4.73
2019-03-05T05:10:10.209Z,4.80
2019-03-05T05:12:43.673Z,3.67
2019-03-05T05:15:34.022Z,4.30
2019-03-05T05:18:07.559Z,4.30
2019-03-05T05:20:40.961Z,3.77
2019-03-05T05:23:14.387Z,3.67
2019-03-05T05:25:47.993Z,3.50
2019-03-05T05:28:21.511Z,3.80
2019-03-05T05:30:55.050Z,3.87
2019-03-05T05:33:28.553Z,3.30
2019-03-05T05:36:02.002Z,4.00
2019-03-05T05:38:35.426Z,3.67
2019-03-05T05:41:08.951Z,3.40
2019-03-05T05:43:42.401Z,3.87
2019-03-05T05:46:15.873Z,4.17
2019-03-05T05:48:49.330Z,4.13
2019-03-05T05:51:22.839Z,4.83
2019-03-05T05:53:56.252Z,4.60
2019-03-05T05:56:29.704Z,3.90
2019-03-05T05:59:03.216Z,3.37
2019-03-05T06:01:36.740Z,4.10
2019-03-05T06:04:10.158Z,3.93
2019-03-05T06:06:43.629Z,3.87
2019-03-05T06:09:16.972Z,3.87
2019-03-05T06:11:50.450Z,3.47
2019-03-05T06:14:23.911Z,3.20
2019-03-05T06:16:57.340Z,3.73
2019-03-05T06:19:30.828Z,2.73
2019-03-05T06:22:04.288Z,3.17
2019-03-05T06:24:37.861Z,3.10
2019-03-05T06:27:11.319Z,3.10
2019-03-05T06:29:44.681Z,3.37
2019-03-05T06:32:18.160Z,3.30
2019-03-05T06:34:51.575Z,3.50
2019-03-05T06:37:25.121Z,3.00
2019-03-05T06:39:58.647Z,3.00
2019-03-05T06:42:32.149Z,2.70
2019-03-05T06:45:08.694Z,2.77
2019-03-05T06:47:42.207Z,2.37
2019-03-05T06:50:17.418Z,2.13
2019-03-05T06:52:51.009Z,2.70
2019-03-05T06:55:24.456Z,2.33
2019-03-05T06:57:57.844Z,2.17
2019-03-05T07:00:34.291Z,2.07
2019-03-05T07:03:09.329Z,2.27
2019-03-05T07:06:19.007Z,2.43
2019-03-05T07:09:05.113Z,1.90
2019-03-05T07:12:05.908Z,1.63
2019-03-05T07:14:42.572Z,2.30
2019-03-05T07:17:24.420Z,1.97
2019-03-05T07:20:24.927Z,2.23
2019-03-05T07:23:10.687Z,2.40
2019-03-05T07:25:44.088Z,1.90
2019-03-05T07:28:17.563Z,2.37
2019-03-05T07:30:51.056Z,2.90
2019-03-05T07:33:24.579Z,2.50
2019-03-05T07:35:58.120Z,2.77
2019-03-05T07:38:31.569Z,2.83
2019-03-05T07:41:05.007Z,3.43
2019-03-05T07:43:38.605Z,2.80
2019-03-05T07:46:12.095Z,3.50
2019-03-05T07:48:45.655Z,3.17
2019-03-05T07:51:19.144Z,3.57
2019-03-05T07:53:52.527Z,3.47
2019-03-05T07:56:25.996Z,3.80
2019-03-05T07:58:59.444Z,3.57
2019-03-05T08:01:32.927Z,3.67
2019-03-05T08:04:06.395Z,3.50
2019-03-05T08:06:39.838Z,3.20
2019-03-05T08:09:36.153Z,3.53
2019-03-05T08:12:35.338Z,3.80
2019-03-05T08:15:14.462Z,3.57
2019-03-05T08:17:48.003Z,4.13
2019-03-05T08:20:21.382Z,4.20
2019-03-05T08:22:54.939Z,3.83
2019-03-05T08:25:28.425Z,3.80
2019-03-05T08:28:01.977Z,3.90
2019-03-05T08:30:35.441Z,4.13
2019-03-05T08:33:09.061Z,3.90
2019-03-05T08:35:42.622Z,4.80
2019-03-05T08:38:16.140Z,4.27
2019-03-05T08:40:49.727Z,3.87
2019-03-05T08:43:23.418Z,3.77
2019-03-05T08:45:56.977Z,3.80
2019-03-05T08:48:30.474Z,3.50
2019-03-05T08:51:03.997Z,3.20
2019-03-05T08:53:49.012Z,3.50
2019-03-05T08:56:12.767Z,3.77
2019-03-05T08:58:46.379Z,3.27
2019-03-05T09:01:19.961Z,3.20
2019-03-05T09:03:53.431Z,3.90
2019-03-05T09:06:27.008Z,3.70
2019-03-05T09:09:00.518Z,3.77
2019-03-05T09:11:33.960Z,3.77
2019-03-05T09:14:07.829Z,3.47
2019-03-05T09:16:41.379Z,3.83
2019-03-05T09:19:14.863Z,3.60
2019-03-05T09:21:49.332Z,3.87
2019-03-05T09:24:23.085Z,3.90
2019-03-05T09:26:56.557Z,3.80
2019-03-05T09:29:30.307Z,3.67
2019-03-05T09:32:03.864Z,3.67
2019-03-05T09:34:37.408Z,3.77
2019-03-05T09:37:10.949Z,3.30
2019-03-05T09:39:44.471Z,3.50
2019-03-05T09:42:18.034Z,3.07
2019-03-05T09:44:51.464Z,3.40
2019-03-05T09:47:24.882Z,3.67
2019-03-05T09:49:58.610Z,3.40
2019-03-05T09:52:32.035Z,3.20
2019-03-05T09:55:08.775Z,3.40
2019-03-05T09:57:42.308Z,3.70
2019-03-05T10:00:21.027Z,3.43
2019-03-05T10:02:54.839Z,3.07
2019-03-05T10:05:28.412Z,2.97
2019-03-05T10:08:01.925Z,2.93
2019-03-05T10:10:35.610Z,2.83
2019-03-05T10:13:09.226Z,3.10
2019-03-05T10:15:42.828Z,2.93
2019-03-05T10:18:16.406Z,2.50
2019-03-05T10:20:49.963Z,1.87
2019-03-05T10:23:23.563Z,1.70
2019-03-05T10:25:57.084Z,2.30
2019-03-05T10:28:30.765Z,1.67
2019-03-05T10:31:04.678Z,1.73
2019-03-05T10:33:38.302Z,2.10
2019-03-05T10:36:11.778Z,1.80
2019-03-05T10:38:56.580Z,1.80
2019-03-05T10:41:20.568Z,2.27
2019-03-05T10:43:54.195Z,3.00
2019-03-05T10:46:27.613Z,2.90
2019-03-05T10:49:01.157Z,2.63
2019-03-05T10:51:34.571Z,2.80
2019-03-05T10:54:08.109Z,3.10
2019-03-05T10:56:41.594Z,2.67
2019-03-05T10:59:15.077Z,3.20
2019-03-05T11:01:48.900Z,2.93
2019-03-05T11:04:22.494Z,2.57
2019-03-05T11:06:56.141Z,2.73
2019-03-05T11:09:29.716Z,2.30
2019-03-05T11:12:03.239Z,2.20
2019-03-05T11:14:36.840Z,2.77
2019-03-05T11:17:10.625Z,2.70
2019-03-05T11:19:44.198Z,2.67
2019-03-05T11:22:17.764Z,2.63
2019-03-05T11:24:51.397Z,2.67
2019-03-05T11:27:24.889Z,2.60
2019-03-05T11:29:58.469Z,2.80
2019-03-05T11:32:32.123Z,3.00
2019-03-05T11:35:08.410Z,3.07
2019-03-05T11:37:42.006Z,2.50
2019-03-05T11:40:21.245Z,2.70
2019-03-05T11:42:55.098Z,2.30
2019-03-05T11:45:29.557Z,2.87
2019-03-05T11:48:03.269Z,2.90
2019-03-05T11:50:36.819Z,2.83
2019-03-05T11:53:10.385Z,2.30
2019-03-05T11:55:44.180Z,2.53
2019-03-05T11:58:17.740Z,2.27
2019-03-05T12:00:52.889Z,2.60
2019-03-05T12:03:26.469Z,2.60
2019-03-05T12:05:59.939Z,2.70
2019-03-05T12:08:33.515Z,2.77
2019-03-05T12:11:06.995Z,2.20
2019-03-05T12:13:40.411Z,2.77
2019-03-05T12:16:14.215Z,2.60
2019-03-05T12:18:47.702Z,2.60
2019-03-05T12:21:21.277Z,2.57
2019-03-05T12:23:54.689Z,2.63
2019-03-05T12:26:28.299Z,2.50
2019-03-05T12:29:01.744Z,2.50
2019-03-05T12:31:35.239Z,2.57
2019-03-05T12:34:08.793Z,3.03
2019-03-05T12:36:42.313Z,2.30
2019-03-05T12:39:17.069Z,2.60
2019-03-05T12:41:50.535Z,2.80
2019-03-05T12:44:24.033Z,2.70
2019-03-05T12:46:57.492Z,2.67
2019-03-05T12:49:31.008Z,2.70
2019-03-05T12:52:04.576Z,2.57
2019-03-05T12:54:38.055Z,2.50
2019-03-05T12:57:11.611Z,2.43
2019-03-05T12:59:45.261Z,2.30
2019-03-05T13:02:18.678Z,2.77
2019-03-05T13:04:52.128Z,2.70
2019-03-05T13:07:25.703Z,2.53
2019-03-05T13:09:59.149Z,2.43
2019-03-05T13:12:35.940Z,2.67
2019-03-05T13:15:10.652Z,2.10
2019-03-05T13:17:47.023Z,1.97
2019-03-05T13:20:22.626Z,2.57
2019-03-05T13:22:54.538Z,2.50
2019-03-05T13:25:29.715Z,2.70
2019-03-05T13:28:04.259Z,2.67
2019-03-05T13:30:40.335Z,2.57
2019-03-05T13:33:13.361Z,2.60
2019-03-05T13:35:46.883Z,3.10
2019-03-05T13:38:20.310Z,2.90
2019-03-05T13:40:53.889Z,2.93
2019-03-05T13:43:27.388Z,2.70
2019-03-05T13:46:00.917Z,3.13
2019-03-05T13:48:59.451Z,2.80
2019-03-05T13:51:38.785Z,3.30
2019-03-05T13:54:37.905Z,3.03
2019-03-05T13:57:31.130Z,3.63
2019-03-05T14:00:08.303Z,3.17
2019-03-05T14:03:14.394Z,3.60
2019-03-05T14:05:53.527Z,3.03
2019-03-05T14:09:03.211Z,3.03
2019-03-05T14:11:36.726Z,3.47
2019-03-05T14:14:13.453Z,3.07
2019-03-05T14:16:48.169Z,3.37
2019-03-05T14:19:21.727Z,3.47
2019-03-05T14:21:55.348Z,3.33
2019-03-05T14:24:29.065Z,3.63
2019-03-05T14:27:02.596Z,2.90
2019-03-05T14:29:36.216Z,3.80
2019-03-05T14:32:09.898Z,2.90
2019-03-05T14:34:46.658Z,3.40
2019-03-05T14:37:20.102Z,3.40
2019-03-05T14:39:53.621Z,2.47
2019-03-05T14:42:27.217Z,3.30
2019-03-05T14:45:00.785Z,3.20
2019-03-05T14:47:34.404Z,3.20
2019-03-05T14:50:08.720Z,3.37
2019-03-05T14:52:42.446Z,3.27
2019-03-05T14:55:16.102Z,2.87
2019-03-05T14:57:49.837Z,2.27
2019-03-05T15:00:23.822Z,2.97
2019-03-05T15:02:57.533Z,2.97
2019-03-05T15:05:31.138Z,3.27
2019-03-05T15:08:04.805Z,3.03
2019-03-05T15:10:38.274Z,2.77
2019-03-05T15:13:18.576Z,2.80
2019-03-05T15:15:47.116Z,3.03
2019-03-05T15:18:20.672Z,3.17
2019-03-05T15:20:54.185Z,3.63
2019-03-05T15:23:27.712Z,3.50
2019-03-05T15:26:01.263Z,4.03
2019-03-05T15:28:34.773Z,3.10
2019-03-05T15:31:08.314Z,3.30
2019-03-05T15:33:42.041Z,3.03
2019-03-05T15:38:50.785Z,3.83
2019-03-05T15:41:24.340Z,3.57
2019-03-05T15:43:57.807Z,4.30
2019-03-05T15:46:31.459Z,3.47
2019-03-05T15:49:04.944Z,4.00
2019-03-05T15:51:38.416Z,3.63
2019-03-05T15:54:12.671Z,3.70
2019-03-05T15:56:46.326Z,4.50
2019-03-05T15:59:19.943Z,4.40
2019-03-05T16:01:53.441Z,3.67
2019-03-05T16:04:26.992Z,3.57
2019-03-05T16:07:00.591Z,3.60
2019-03-05T16:09:35.009Z,3.10
2019-03-05T16:12:09.751Z,3.57
2019-03-05T16:14:44.294Z,3.67
2019-03-05T16:17:18.730Z,3.43
2019-03-05T16:19:52.814Z,4.80
2019-03-05T16:22:26.500Z,5.33
2019-03-05T16:25:00.025Z,5.57
2019-03-05T16:27:33.503Z,4.83
2019-03-05T16:30:15.018Z,5.10
2019-03-05T16:32:50.071Z,4.00
2019-03-05T16:35:30.696Z,4.33
2019-03-05T16:38:14.992Z,5.37
2019-03-05T16:40:57.930Z,5.43
2019-03-05T16:43:38.161Z,4.67
2019-03-05T16:46:16.394Z,4.97
2019-03-05T16:49:08.589Z,4.63
2019-03-05T16:51:49.865Z,4.80
2019-03-05T16:54:34.353Z,4.63
2019-03-05T16:57:09.484Z,4.43
2019-03-05T16:59:44.547Z,4.07
2019-03-05T17:02:19.787Z,4.83
2019-03-05T17:05:00.838Z,4.03
2019-03-05T17:07:44.836Z,4.83
2019-03-05T17:10:30.041Z,3.87
2019-03-05T17:13:03.673Z,4.20
2019-03-05T17:15:37.183Z,3.87
2019-03-05T17:18:10.802Z,3.33
2019-03-05T17:20:44.277Z,3.33
2019-03-05T17:23:17.916Z,3.60
2019-03-05T17:25:51.445Z,3.80
2019-03-05T17:28:24.922Z,3.67
2019-03-05T17:30:58.512Z,3.57
2019-03-05T17:33:32.520Z,4.37
2019-03-05T17:36:06.219Z,3.53
2019-03-05T17:38:39.741Z,4.13
2019-03-05T17:41:13.496Z,4.50
2019-03-05T17:43:47.268Z,6.50
2019-03-05T17:46:20.743Z,4.67
2019-03-05T17:48:54.300Z,8.73
2019-03-05T17:51:27.863Z,5.50
2019-03-05T17:54:01.464Z,5.53
2019-03-05T17:56:34.963Z,4.47
2019-03-05T17:59:08.852Z,5.63
2019-03-05T18:01:42.423Z,5.20
2019-03-05T18:04:15.971Z,5.40
2019-03-05T18:06:49.560Z,5.20
2019-03-05T18:09:23.567Z,5.63
2019-03-05T18:11:57.172Z,4.87
2019-03-05T18:14:30.829Z,5.97
2019-03-05T18:17:04.407Z,5.47
2019-03-05T18:19:37.937Z,5.77
2019-03-05T18:22:11.722Z,6.33
2019-03-05T18:24:45.359Z,8.37
2019-03-05T18:27:18.914Z,7.20
2019-03-05T18:29:52.517Z,11.60
2019-03-05T18:32:26.126Z,8.60
2019-03-05T18:34:59.730Z,8.00
2019-03-05T18:37:33.384Z,8.00
2019-03-05T18:40:10.075Z,10.50
2019-03-05T18:42:43.901Z,7.67
2019-03-05T18:45:23.045Z,9.10
2019-03-05T18:47:56.597Z,9.83
2019-03-05T18:50:30.243Z,10.77
2019-03-05T18:53:05.261Z,12.03
2019-03-05T18:55:38.728Z,15.13
2019-03-05T18:58:12.247Z,16.23
2019-03-05T19:00:45.863Z,16.30
2019-03-05T19:03:20.297Z,16.07
2019-03-05T19:05:53.859Z,17.33
2019-03-05T19:08:27.297Z,19.33
2019-03-05T19:11:00.902Z,19.40
2019-03-05T19:13:34.568Z,19.37
2019-03-05T19:16:07.994Z,21.30
2019-03-05T19:18:41.526Z,24.37
2019-03-05T19:21:15.017Z,15.73
2019-03-05T19:23:48.496Z,12.97
2019-03-05T19:26:22.149Z,12.47
2019-03-05T19:28:55.734Z,14.10
2019-03-05T19:31:29.353Z,10.60
2019-03-05T19:34:02.877Z,11.20
2019-03-05T19:36:36.415Z,10.27
2019-03-05T19:39:10.436Z,12.07
2019-03-05T19:41:44.120Z,10.57
2019-03-05T19:44:17.667Z,11.27
2019-03-05T19:46:51.363Z,11.27
2019-03-05T19:49:24.996Z,11.73
2019-03-05T19:51:58.758Z,13.80
2019-03-05T19:54:32.365Z,16.47
2019-03-05T19:57:06.081Z,17.20
2019-03-05T19:59:39.693Z,15.67
2019-03-05T20:02:13.210Z,13.80
2019-03-05T20:04:46.683Z,13.57
2019-03-05T20:07:20.177Z,12.13
2019-03-05T20:09:53.643Z,14.77
2019-03-05T20:12:27.310Z,12.13
2019-03-05T20:15:00.882Z,17.07
2019-03-05T20:17:34.325Z,13.23
2019-03-05T20:20:09.530Z,16.27
2019-03-05T20:22:43.031Z,11.40
2019-03-05T20:25:22.123Z,11.87
2019-03-05T20:27:55.742Z,11.00
2019-03-05T20:30:29.414Z,12.73
2019-03-05T20:33:02.932Z,11.03
2019-03-05T20:35:36.545Z,13.63
2019-03-05T20:38:10.465Z,14.87
2019-03-05T20:40:44.006Z,10.10
2019-03-05T20:43:17.572Z,10.30
2019-03-05T20:45:56.700Z,9.77
2019-03-05T20:48:30.209Z,9.77
2019-03-05T20:51:03.717Z,12.50
2019-03-05T20:53:37.256Z,8.97
2019-03-05T20:56:10.835Z,10.30
2019-03-05T20:58:44.416Z,12.13
2019-03-05T21:01:18.103Z,8.63
2019-03-05T21:03:51.521Z,9.20
2019-03-05T21:06:25.649Z,9.80
2019-03-05T21:08:59.081Z,8.70
2019-03-05T21:11:32.599Z,9.67
2019-03-05T21:14:06.101Z,8.97
2019-03-05T21:16:39.506Z,8.97
2019-03-05T21:19:12.877Z,11.07
2019-03-05T21:21:46.634Z,8.90
2019-03-05T21:24:20.059Z,10.07
2019-03-05T21:26:53.512Z,8.47
2019-03-05T21:29:27.006Z,9.67
2019-03-05T21:32:00.421Z,9.23
2019-03-05T21:34:34.611Z,10.40
2019-03-05T21:37:10.389Z,9.97
2019-03-05T21:39:44.424Z,11.10
2019-03-05T21:42:17.984Z,8.13
2019-03-05T21:44:51.540Z,10.30
2019-03-05T21:47:25.154Z,9.80
2019-03-05T21:49:58.906Z,9.07
2019-03-05T21:52:32.432Z,9.13
2019-03-05T21:55:08.213Z,9.93
2019-03-05T21:57:41.898Z,7.83
2019-03-05T22:00:18.349Z,9.17
2019-03-05T22:02:51.901Z,11.40
2019-03-05T22:05:25.454Z,10.97
2019-03-05T22:07:59.088Z,10.07
2019-03-05T22:10:32.553Z,9.60
2019-03-05T22:13:06.101Z,9.30
2019-03-05T22:15:39.650Z,10.23
2019-03-05T22:18:13.251Z,8.77
2019-03-05T22:20:46.873Z,10.27
2019-03-05T22:23:20.531Z,9.43
2019-03-05T22:25:54.102Z,12.57
2019-03-05T22:28:27.642Z,10.30
2019-03-05T22:31:01.139Z,9.30
2019-03-05T22:33:34.755Z,9.17
2019-03-05T22:36:08.217Z,11.10
2019-03-05T22:38:41.908Z,10.07
2019-03-05T22:41:15.397Z,10.33
2019-03-05T22:43:48.919Z,10.10
2019-03-05T22:46:22.532Z,10.27
2019-03-05T22:48:56.156Z,9.90
2019-03-05T22:51:29.784Z,10.07
2019-03-05T22:54:03.196Z,10.40
2019-03-05T22:56:36.771Z,11.53
2019-03-05T22:59:10.470Z,10.27
2019-03-05T23:01:44.215Z,9.97
2019-03-05T23:04:18.216Z,10.77
2019-03-05T23:06:51.819Z,10.50
2019-03-05T23:09:25.976Z,10.30
2019-03-05T23:11:59.491Z,10.57
2019-03-05T23:14:33.273Z,12.00
2019-03-05T23:17:07.340Z,11.10
2019-03-05T23:19:40.903Z,9.60
2019-03-05T23:22:15.053Z,9.13
2019-03-05T23:24:48.618Z,11.90
2019-03-05T23:27:22.321Z,9.67
2019-03-05T23:29:55.965Z,10.43
2019-03-05T23:32:29.597Z,12.17
2019-03-05T23:35:03.023Z,10.50
2019-03-05T23:37:36.583Z,10.30
2019-03-05T23:40:11.285Z,11.73
2019-03-05T23:42:45.156Z,10.23
2019-03-05T23:45:19.417Z,10.73
2019-03-05T23:47:52.917Z,15.40
2019-03-05T23:50:26.344Z,10.03
2019-03-05T23:52:59.833Z,10.33
2019-03-05T23:55:33.618Z,10.57
2019-03-05T23:58:07.135Z,10.63
